Jenkinsville, South Carolina
Current Conditions -  °F | °C
As of 9:35 AM on Thursday 27 Nov 2014 (Local Time) from KFDW Reporting Station
Clear Clear  
Wind Chill:   Ceiling: Unl
Heat Index:   Visibility: 10mi
Dew Point:   Wind: 9mph
Humidity: 57%   Direction: 280°W
Pressure: 30.08"   Gusts: 22mph
Location:  34.27°N, 81.29°W
Report Text: KFDW 271435Z AUTO 28008G19KT 10SM CLR 08/00 A3008 RMK AO1
Loading
Personal Weather Stations






























Interactive Weather Map New forecast layout! Learn more

10-Day Weather Forecast

Advertisements
Track Severe Weather on mobile